KCOF/COF METAR and TAF weather

Enter ICAO airport designator
Station Type Date Time Source
KCOF METAR 2022/06/27 06:56 UTC NOAA

KCOF 270656Z AUTO 07006KT 10SM CLR 26/16 A3000 RMK AO2 SLP163 T02570162 FZRANO $


Station Type Date Time Source
KCOF Decoded METAR 2022/06/27 06:56 UTC NOAA

Cocoa / Patrick Air Force Base, FL, United States (KCOF) 28-14N 080-36W 3M
Jun 27, 2022 - 02:56 AM EDT / 2022.06.27 0656 UTC
Wind: from the ENE (070 degrees) at 7 MPH (6 KT):0
Visibility: 10 mile(s):0
Sky conditions: clear
Temperature: 78.3 F (25.7 C)
Dew Point: 61.2 F (16.2 C)
Relative Humidity: 55%
Pressure (altimeter): 30 in. Hg (1015 hPa)
ob: KCOF 270656Z AUTO 07006KT 10SM CLR 26/16 A3000 RMK AO2 SLP163 T02570162 FZRANO
cycle: 7

Station Type Date Time Source
KCOF TAF 2022/06/25 17:06 UTC NOAA

TAF
AMD KCOF 251700Z 2517/2618 05010KT 9999 FEW020 SCT035 BKN150 QNH2998INS
BECMG 2611/2612 04010KT 9999 VCSH SCT030 QNH2996INS TX31/2519Z TN25/2610Z LAST NO
AMDS AFT 2517 NEXT 2710

Example: see airport list